Bookmark and Share
Track history (hours):
 

Spabunker Twenty

Last reported at 2014-Apr-17 00:33 UTC. Time now 2014-Apr-17 01:03 UTC.
Position N 36°08' W 005°23'.

Length 77 m; draft 5.5 m.

Type: Ship (hazmat cat C). MMSI: 236053000.

NotesDate/timePositionNaut miles runAvg speedWind from/ knotsBaromVisibWave heightAir tempDewpointWater temp
2014-Apr-17 00:33N 36°08' W 005°23'2 1.5
2014-Apr-16 23:33N 36°10' W 005°23'1 0.9
2014-Apr-16 22:28N 36°11' W 005°24'0 0.0
2014-Apr-16 21:31N 36°11' W 005°24'0 0.0
2014-Apr-16 20:22N 36°11' W 005°24'0 0.0
2014-Apr-16 19:31N 36°11' W 005°24'0 0.0
2014-Apr-16 18:28N 36°11' W 005°24'0 0.0
2014-Apr-16 17:31N 36°11' W 005°24'0 0.0
2014-Apr-16 16:31N 36°11' W 005°24'0 0.0
2014-Apr-16 15:31N 36°11' W 005°24'0 0.0
2014-Apr-16 14:28N 36°11' W 005°24'0 0.0
2014-Apr-16 13:28N 36°11' W 005°24'0 0.0
2014-Apr-16 12:31N 36°11' W 005°24'0 0.0
2014-Apr-16 11:31N 36°11' W 005°24'0 0.0
2014-Apr-16 10:31N 36°11' W 005°24'1 0.6
2014-Apr-16 09:33N 36°10' W 005°24'1 1.2
2014-Apr-16 08:34N 36°09' W 005°22'0 0.2
2014-Apr-16 07:29N 36°09' W 005°22'0 0.0
2014-Apr-16 06:29N 36°09' W 005°22'0 0.0
2014-Apr-16 05:32N 36°09' W 005°22'0 0.2
2014-Apr-16 04:33N 36°09' W 005°22'2 1.9
2014-Apr-16 03:32N 36°07' W 005°22'0 0.0
2014-Apr-16 02:26N 36°07' W 005°22'0 0.0
2014-Apr-16 01:29N 36°07' W 005°22'0 0.2
2014-Apr-16 00:29N 36°08' W 005°22'0 0.1
2014-Apr-15 23:32N 36°08' W 005°22'0 0.1
2014-Apr-15 22:29N 36°08' W 005°22'0 0.1
2014-Apr-15 21:32N 36°08' W 005°22'0 0.2
2014-Apr-15 20:33N 36°07' W 005°22'1 0.6
2014-Apr-15 19:31N 36°07' W 005°21'0 0.0
2014-Apr-15 18:28N 36°07' W 005°21'0 0.1
2014-Apr-15 17:31N 36°07' W 005°21'0 0.0
2014-Apr-15 16:31N 36°07' W 005°21'0 0.0
2014-Apr-15 15:31N 36°07' W 005°21'0 0.1
2014-Apr-15 14:33N 36°07' W 005°21'1 0.7
2014-Apr-15 12:34N 36°08' W 005°22'1 1.2
2014-Apr-15 11:32N 36°09' W 005°22'0 0.0
2014-Apr-15 10:31N 36°09' W 005°22'0 0.0
2014-Apr-15 06:34N 36°09' W 005°22'2 1.6
2014-Apr-15 05:34N 36°08' W 005°22'0 0.0
2014-Apr-15 03:34N 36°08' W 005°22'0 0.1
2014-Apr-15 02:34N 36°08' W 005°22'0 0.0
2014-Apr-15 01:34N 36°08' W 005°22'0 0.1
2014-Apr-15 00:34N 36°08' W 005°22'0 0.0
2014-Apr-14 23:34N 36°08' W 005°22'0 0.5
2014-Apr-14 22:32N 36°07' W 005°22'0 0.1
2014-Apr-14 21:32N 36°08' W 005°22'0 0.1
2014-Apr-14 20:32N 36°07' W 005°23'0 0.1
2014-Apr-14 19:32N 36°07' W 005°23'0 0.2
2014-Apr-14 18:34N 36°07' W 005°22'1 0.9
2014-Apr-14 17:31N 36°08' W 005°23'0 0.1
2014-Apr-14 16:34N 36°08' W 005°23'0 0.1
2014-Apr-14 15:34N 36°08' W 005°23'0 0.0
2014-Apr-14 14:34N 36°08' W 005°23'0 0.0
2014-Apr-14 13:34N 36°08' W 005°23'0 0.0
2014-Apr-14 11:34N 36°08' W 005°23'0 0.1
2014-Apr-14 10:34N 36°08' W 005°23'1 0.9
2014-Apr-14 09:34N 36°09' W 005°23'2 1.6
2014-Apr-14 08:33N 36°08' W 005°22'0 0.4
2014-Apr-14 07:34N 36°07' W 005°22'0 0.1
2014-Apr-14 06:33N 36°07' W 005°22'0 0.0
2014-Apr-14 05:33N 36°07' W 005°22'4 0.5
2014-Apr-13 22:31N 36°11' W 005°24'0 0.0
2014-Apr-13 21:31N 36°11' W 005°24'0 0.0
2014-Apr-13 20:31N 36°11' W 005°24'0 0.0
2014-Apr-13 19:31N 36°11' W 005°24'0 0.0
2014-Apr-13 18:31N 36°11' W 005°24'0 0.0
2014-Apr-13 17:31N 36°11' W 005°24'0 0.0
2014-Apr-13 16:31N 36°11' W 005°24'0 0.0
2014-Apr-13 15:33N 36°11' W 005°24'0 0.5
2014-Apr-13 14:33N 36°10' W 005°24'1 1.0
2014-Apr-13 13:22N 36°10' W 005°22'0 0.0
2014-Apr-13 12:31N 36°10' W 005°22'1 1.3
2014-Apr-13 11:33N 36°08' W 005°23'0 0.1
2014-Apr-13 10:33N 36°08' W 005°23'0 0.0
2014-Apr-13 09:34N 36°08' W 005°23'0 0.2
2014-Apr-13 08:34N 36°08' W 005°23'0 0.1
2014-Apr-13 07:34N 36°08' W 005°23'0 0.0
2014-Apr-13 06:34N 36°08' W 005°23'0 0.0
2014-Apr-13 05:33N 36°08' W 005°23'0 0.1
2014-Apr-13 04:34N 36°08' W 005°23'0 0.1
2014-Apr-13 03:34N 36°08' W 005°22'0 0.5
2014-Apr-13 02:33N 36°09' W 005°22'0 0.1
2014-Apr-13 01:34N 36°09' W 005°22'0 0.0
2014-Apr-13 00:34N 36°09' W 005°22'0 0.0
2014-Apr-12 23:33N 36°09' W 005°22'0 0.0
2014-Apr-12 22:33N 36°09' W 005°22'0 0.0
2014-Apr-12 21:34N 36°09' W 005°22'1 0.9
2014-Apr-12 20:34N 36°10' W 005°22'0 0.5
2014-Apr-12 19:34N 36°09' W 005°23'1 1.5
2014-Apr-12 18:33N 36°08' W 005°23'0 0.0
2014-Apr-12 17:34N 36°08' W 005°23'0 0.0
2014-Apr-12 16:33N 36°08' W 005°23'0 0.0
2014-Apr-12 15:33N 36°08' W 005°23'0 0.0
2014-Apr-12 14:34N 36°08' W 005°23'0 0.4
2014-Apr-12 13:33N 36°08' W 005°22'0 0.0
2014-Apr-12 12:34N 36°08' W 005°22'0 0.0
2014-Apr-12 11:34N 36°08' W 005°22'0 0.0
2014-Apr-12 10:34N 36°08' W 005°22'0 0.1
2014-Apr-12 09:33N 36°08' W 005°22'0 0.1
2014-Apr-12 08:34N 36°08' W 005°22'0 0.1
2014-Apr-12 07:33N 36°08' W 005°22'0 0.0
2014-Apr-12 06:34N 36°08' W 005°22'0 0.0
2014-Apr-12 05:34N 36°08' W 005°22'0 0.0
2014-Apr-12 04:33N 36°08' W 005°22'0 0.0
2014-Apr-12 03:34N 36°08' W 005°22'0 0.0
2014-Apr-12 02:33N 36°08' W 005°22'0 0.0
2014-Apr-12 01:33N 36°08' W 005°22'0 0.1
2014-Apr-12 00:34N 36°08' W 005°22'0 0.1
2014-Apr-11 23:34N 36°08' W 005°22'0 0.1
2014-Apr-11 22:33N 36°08' W 005°22'0 0.2
2014-Apr-11 21:33N 36°08' W 005°22'0 0.0
2014-Apr-11 20:34N 36°08' W 005°22'1 1.0
2014-Apr-11 19:33N 36°09' W 005°22'0 0.0
2014-Apr-11 18:34N 36°09' W 005°22'0 0.0
2014-Apr-11 17:33N 36°09' W 005°22'0 0.0
2014-Apr-11 16:34N 36°09' W 005°22'0 0.0
2014-Apr-11 15:33N 36°09' W 005°22'0 0.0
2014-Apr-11 14:33N 36°09' W 005°22'0 0.0
2014-Apr-11 13:33N 36°09' W 005°22'0 0.0
2014-Apr-11 12:33N 36°09' W 005°22'0 0.0
2014-Apr-11 11:33N 36°09' W 005°22'0 0.0
2014-Apr-11 10:32N 36°09' W 005°22'0 0.0
2014-Apr-11 09:33N 36°09' W 005°22'0 0.0
2014-Apr-11 08:33N 36°09' W 005°22'0 0.0
2014-Apr-11 07:33N 36°09' W 005°22'1 1.0
2014-Apr-11 06:33N 36°09' W 005°23'2 2.4
2014-Apr-11 05:33N 36°07' W 005°22'0 0.0
2014-Apr-11 04:34N 36°07' W 005°22'0 0.1
2014-Apr-11 02:34N 36°07' W 005°22'0 0.1
2014-Apr-11 01:33N 36°07' W 005°22'0 0.1
2014-Apr-11 00:34N 36°07' W 005°22'0 0.2
2014-Apr-10 23:33N 36°07' W 005°22'3 2.8
2014-Apr-10 22:34N 36°10' W 005°23'1 1.3
2014-Apr-10 21:33N 36°11' W 005°24'0 0.0
2014-Apr-10 20:33N 36°11' W 005°24'0 0.0
2014-Apr-10 19:33N 36°11' W 005°24'0 0.0
2014-Apr-10 18:33N 36°11' W 005°24'0 0.0
2014-Apr-10 17:33N 36°11' W 005°24'0 0.0
2014-Apr-10 16:33N 36°11' W 005°24'0 0.0
2014-Apr-10 15:33N 36°11' W 005°24'0 0.0
2014-Apr-10 14:33N 36°11' W 005°24'0 0.0
2014-Apr-10 13:34N 36°11' W 005°24'0 0.0
2014-Apr-10 12:33N 36°11' W 005°24'0 0.0
2014-Apr-10 11:33N 36°11' W 005°24'0 0.0
2014-Apr-10 10:33N 36°11' W 005°24'0 0.0
2014-Apr-10 09:32N 36°11' W 005°24'2 1.7
2014-Apr-10 08:33N 36°09' W 005°23'2 1.5
2014-Apr-10 07:31N 36°08' W 005°22'0 0.0
2014-Apr-10 06:31N 36°08' W 005°22'0 0.0
2014-Apr-10 05:28N 36°08' W 005°22'0 0.0
2014-Apr-10 04:31N 36°08' W 005°22'0 0.0
2014-Apr-10 03:31N 36°08' W 005°22'0 0.1
2014-Apr-10 02:31N 36°08' W 005°22'0 0.1
2014-Apr-10 01:19N 36°08' W 005°22'0 0.1
2014-Apr-10 00:31N 36°08' W 005°22'0 0.0
2014-Apr-09 23:31N 36°08' W 005°22'0 0.0
2014-Apr-09 22:31N 36°08' W 005°22'0 0.1
2014-Apr-09 21:34N 36°08' W 005°22'1 0.5
2014-Apr-09 20:33N 36°08' W 005°22'0 0.0
2014-Apr-09 19:33N 36°09' W 005°22'0 0.1
2014-Apr-09 18:34N 36°09' W 005°22'0 0.1
2014-Apr-09 17:33N 36°09' W 005°22'0 0.1
2014-Apr-09 16:34N 36°09' W 005°22'0 0.1
2014-Apr-09 15:34N 36°09' W 005°22'0 0.1
2014-Apr-09 14:33N 36°09' W 005°22'0 0.1
2014-Apr-09 13:33N 36°08' W 005°22'0 0.2
2014-Apr-09 12:33N 36°09' W 005°22'1 1.1
2014-Apr-09 11:33N 36°07' W 005°22'0 0.0
2014-Apr-09 10:34N 36°07' W 005°22'0 0.0
2014-Apr-09 09:34N 36°07' W 005°22'0 0.0
2014-Apr-09 08:34N 36°07' W 005°22'0 0.0
2014-Apr-09 07:33N 36°07' W 005°22'0 0.0
2014-Apr-09 06:33N 36°07' W 005°22'0 0.0
2014-Apr-09 05:33N 36°07' W 005°22'0 0.1
2014-Apr-09 04:34N 36°07' W 005°22'0 0.5
2014-Apr-09 03:34N 36°07' W 005°22'0 0.1
2014-Apr-09 02:33N 36°07' W 005°22'0 0.0
2014-Apr-09 01:34N 36°07' W 005°22'0 0.0
2014-Apr-09 00:33N 36°07' W 005°22'0 0.0
2014-Apr-08 23:33N 36°07' W 005°22'0 0.0
2014-Apr-08 22:33N 36°07' W 005°22'0 0.0
2014-Apr-08 21:33N 36°07' W 005°22'0 0.1
2014-Apr-08 20:33N 36°07' W 005°22'0 0.4
2014-Apr-08 19:33N 36°07' W 005°22'0 0.0
2014-Apr-08 18:33N 36°07' W 005°22'0 0.0
2014-Apr-08 17:33N 36°07' W 005°22'0 0.0
2014-Apr-08 16:33N 36°07' W 005°22'0 0.0
2014-Apr-08 15:33N 36°07' W 005°22'0 0.1
2014-Apr-08 14:33N 36°08' W 005°22'0 0.0
2014-Apr-08 13:34N 36°08' W 005°22'0 0.0
2014-Apr-08 12:33N 36°08' W 005°22'2 1.9
2014-Apr-08 11:33N 36°09' W 005°23'2 1.3
2014-Apr-08 10:20N 36°11' W 005°24'0 0.0
2014-Apr-08 09:32N 36°11' W 005°24'0 0.0
2014-Apr-08 06:05N 36°11' W 005°24'0 0.0
2014-Apr-08 05:23N 36°11' W 005°24'0 0.0
2014-Apr-08 04:32N 36°11' W 005°24'0 0.0
2014-Apr-08 03:29N 36°11' W 005°24'2 1.8
2014-Apr-08 02:33N 36°09' W 005°25'1 1.2
2014-Apr-08 01:27N 36°08' W 005°26'0 0.0
2014-Apr-08 00:33N 36°08' W 005°26'0 0.0
2014-Apr-07 23:33N 36°08' W 005°26'0 0.0
2014-Apr-07 22:33N 36°08' W 005°26'0 0.0
2014-Apr-07 21:33N 36°08' W 005°26'0 0.0
2014-Apr-07 20:24N 36°08' W 005°26'0 0.0
2014-Apr-07 19:33N 36°08' W 005°26'0 0.0
2014-Apr-07 17:30N 36°08' W 005°26'0 0.4
2014-Apr-07 16:33N 36°09' W 005°26'1 1.4
2014-Apr-07 15:34N 36°09' W 005°24'1 1.5
2014-Apr-07 14:34N 36°09' W 005°22'0 0.2
2014-Apr-07 13:31N 36°09' W 005°22'0 0.0
2014-Apr-07 12:31N 36°09' W 005°22'0 0.0
2014-Apr-07 11:31N 36°09' W 005°22'  

Dump ship's entire track history

sailing weather and tide predictions

Spabunker Twenty — ZDFU5 — position and weather